createdAt,value
2023-01-20T00:01:25.862Z,10.98
2023-01-20T00:03:53.601Z,10.98
2023-01-20T00:06:22.058Z,10.99
2023-01-20T00:08:51.939Z,10.87
2023-01-20T00:11:18.615Z,10.92
2023-01-20T00:13:45.265Z,10.92
2023-01-20T00:16:12.039Z,10.87
2023-01-20T00:18:39.422Z,10.89
2023-01-20T00:21:07.571Z,10.92
2023-01-20T00:23:34.441Z,10.83
2023-01-20T00:26:09.400Z,10.76
2023-01-20T00:28:36.779Z,10.72
2023-01-20T00:31:19.272Z,10.67
2023-01-20T00:33:46.970Z,10.80
2023-01-20T00:36:14.296Z,10.62
2023-01-20T00:38:41.040Z,10.69
2023-01-20T00:41:08.156Z,10.57
2023-01-20T00:43:35.322Z,10.50
2023-01-20T00:46:02.043Z,10.59
2023-01-20T00:48:28.720Z,10.69
2023-01-20T00:50:55.363Z,10.81
2023-01-20T00:53:22.050Z,10.87
2023-01-20T00:55:48.788Z,10.85
2023-01-20T00:58:15.832Z,10.50
2023-01-20T01:00:42.870Z,10.34
2023-01-20T01:03:10.641Z,10.48
2023-01-20T01:05:37.746Z,10.49
2023-01-20T01:08:04.787Z,10.60
2023-01-20T01:10:31.906Z,10.75
2023-01-20T01:13:01.783Z,10.79
2023-01-20T01:15:28.835Z,10.78
2023-01-20T01:17:56.439Z,10.81
2023-01-20T01:20:23.100Z,10.86
2023-01-20T01:22:49.830Z,10.77
2023-01-20T01:25:16.603Z,10.71
2023-01-20T01:27:43.254Z,10.78
2023-01-20T01:30:10.319Z,10.62
2023-01-20T01:32:37.048Z,10.66
2023-01-20T01:35:03.767Z,10.65
2023-01-20T01:37:30.402Z,10.53
2023-01-20T01:39:57.056Z,10.61
2023-01-20T01:42:25.156Z,10.63
2023-01-20T01:45:03.985Z,10.54
2023-01-20T01:47:30.661Z,10.64
2023-01-20T01:49:57.433Z,10.68
2023-01-20T01:52:25.135Z,10.66
2023-01-20T01:54:53.097Z,10.63
2023-01-20T01:57:19.811Z,10.53
2023-01-20T01:59:46.472Z,10.45
2023-01-20T02:02:13.280Z,10.31
2023-01-20T02:04:42.831Z,10.47
2023-01-20T02:07:12.034Z,10.53
2023-01-20T02:09:38.819Z,10.56
2023-01-20T02:12:08.757Z,10.56
2023-01-20T02:14:37.102Z,10.56
2023-01-20T02:17:06.572Z,10.37
2023-01-20T02:19:43.909Z,10.37
2023-01-20T02:22:23.142Z,10.38
2023-01-20T02:24:58.778Z,10.43
2023-01-20T02:27:40.386Z,10.38
2023-01-20T02:30:13.345Z,10.48
2023-01-20T02:32:57.929Z,10.49
2023-01-20T02:35:29.441Z,10.55
2023-01-20T02:38:03.168Z,10.57
2023-01-20T02:40:39.047Z,10.40
2023-01-20T02:43:11.659Z,10.30
2023-01-20T02:46:03.018Z,9.95
2023-01-20T02:48:37.057Z,9.79
2023-01-20T02:51:03.710Z,9.83
2023-01-20T02:53:37.924Z,9.60
2023-01-20T02:56:04.848Z,9.66
2023-01-20T02:58:48.570Z,9.80
2023-01-20T03:01:26.415Z,9.83
2023-01-20T03:03:54.251Z,9.86
2023-01-20T03:06:23.129Z,9.88
2023-01-20T03:08:52.557Z,10.01
2023-01-20T03:11:19.294Z,10.11
2023-01-20T03:13:45.945Z,10.19
2023-01-20T03:16:15.731Z,10.24
2023-01-20T03:18:42.342Z,10.28
2023-01-20T03:21:10.176Z,10.33
2023-01-20T03:23:40.320Z,10.36
2023-01-20T03:26:11.261Z,10.41
2023-01-20T03:28:38.133Z,10.45
2023-01-20T03:31:11.644Z,10.43
2023-01-20T03:33:38.831Z,10.42
2023-01-20T03:36:05.911Z,10.38
2023-01-20T03:38:32.681Z,10.34
2023-01-20T03:41:02.464Z,10.34
2023-01-20T03:43:31.875Z,10.37
2023-01-20T03:46:05.247Z,10.36
2023-01-20T03:48:38.671Z,10.36
2023-01-20T03:51:08.340Z,10.40
2023-01-20T03:54:01.002Z,10.43
2023-01-20T03:56:41.732Z,10.40
2023-01-20T03:59:10.602Z,10.39
2023-01-20T04:01:39.475Z,10.39
2023-01-20T04:04:08.781Z,10.37
2023-01-20T04:06:37.191Z,10.38
2023-01-20T04:09:13.697Z,10.38
2023-01-20T04:11:40.422Z,10.37
2023-01-20T04:14:08.826Z,10.37
2023-01-20T04:16:36.230Z,10.36
2023-01-20T04:19:03.231Z,10.44
2023-01-20T04:21:39.359Z,10.46
2023-01-20T04:24:14.900Z,10.45
2023-01-20T04:26:41.732Z,10.46
2023-01-20T04:29:11.140Z,10.29
2023-01-20T04:31:39.717Z,10.30
2023-01-20T04:34:06.702Z,10.33
2023-01-20T04:36:33.407Z,10.30
2023-01-20T04:39:00.036Z,10.31
2023-01-20T04:41:26.656Z,10.33
2023-01-20T04:43:53.275Z,10.34
2023-01-20T04:46:19.963Z,10.34
2023-01-20T04:48:46.563Z,10.34
2023-01-20T04:51:13.241Z,10.36
2023-01-20T04:53:39.901Z,10.34
2023-01-20T04:56:13.030Z,10.36
2023-01-20T04:58:40.242Z,10.33
2023-01-20T05:01:07.232Z,10.35
2023-01-20T05:03:34.161Z,10.37
2023-01-20T05:06:00.991Z,10.34
2023-01-20T05:08:27.680Z,10.21
2023-01-20T05:10:54.318Z,10.11
2023-01-20T05:13:21.023Z,9.77
2023-01-20T05:15:47.817Z,9.59
2023-01-20T05:18:14.769Z,9.59
2023-01-20T05:20:41.408Z,9.50
2023-01-20T05:23:08.165Z,9.45
2023-01-20T05:25:34.778Z,9.49
2023-01-20T05:28:01.420Z,9.52
2023-01-20T05:30:28.083Z,9.46
2023-01-20T05:32:54.850Z,9.44
2023-01-20T05:35:21.557Z,9.37
2023-01-20T05:37:48.285Z,9.38
2023-01-20T05:40:14.992Z,9.32
2023-01-20T05:42:41.601Z,9.40
2023-01-20T05:45:09.391Z,9.33
2023-01-20T05:47:36.204Z,9.28
2023-01-20T05:50:03.802Z,9.24
2023-01-20T05:52:30.406Z,9.02
2023-01-20T05:54:57.061Z,9.12
2023-01-20T05:57:24.671Z,9.15
2023-01-20T05:59:52.194Z,9.17
2023-01-20T06:02:19.634Z,9.21
2023-01-20T06:04:46.884Z,8.98
2023-01-20T06:07:13.852Z,9.04
2023-01-20T06:09:40.524Z,9.03
2023-01-20T06:12:07.348Z,9.04
2023-01-20T06:14:33.973Z,8.96
2023-01-20T06:17:00.577Z,8.89
2023-01-20T06:19:27.243Z,8.78
2023-01-20T06:21:53.911Z,8.58
2023-01-20T06:24:20.571Z,8.47
2023-01-20T06:26:49.817Z,8.39
2023-01-20T06:29:16.449Z,8.26
2023-01-20T06:31:44.475Z,8.18
2023-01-20T06:34:11.871Z,8.21
2023-01-20T06:36:38.741Z,8.04
2023-01-20T06:39:05.452Z,8.09
2023-01-20T06:41:32.137Z,8.23
2023-01-20T06:43:58.946Z,8.08
2023-01-20T06:46:26.065Z,8.15
2023-01-20T06:48:54.884Z,8.19
2023-01-20T06:51:21.563Z,8.16
2023-01-20T06:53:48.235Z,7.95
2023-01-20T06:56:15.869Z,7.73
2023-01-20T06:58:44.013Z,7.73
2023-01-20T07:01:12.548Z,7.56
2023-01-20T07:03:39.401Z,7.66
2023-01-20T07:06:14.032Z,7.65
2023-01-20T07:08:40.788Z,7.56
2023-01-20T07:11:07.416Z,7.36
2023-01-20T07:13:34.062Z,7.47
2023-01-20T07:16:00.760Z,7.63
2023-01-20T07:18:27.497Z,7.74
2023-01-20T07:20:54.854Z,7.84
2023-01-20T07:23:22.122Z,7.83
2023-01-20T07:25:56.644Z,7.89
2023-01-20T07:28:23.316Z,7.94
2023-01-20T07:30:49.997Z,7.73
2023-01-20T07:33:16.728Z,7.81
2023-01-20T07:35:43.329Z,7.76
2023-01-20T07:38:09.978Z,7.83
2023-01-20T07:40:36.635Z,7.94
2023-01-20T07:43:03.945Z,7.97
2023-01-20T07:45:39.923Z,7.88
2023-01-20T07:48:15.604Z,7.79
2023-01-20T07:50:42.285Z,7.71
2023-01-20T07:53:08.865Z,7.87
2023-01-20T07:55:35.535Z,7.70
2023-01-20T07:58:02.384Z,7.95
2023-01-20T08:00:29.002Z,8.01
2023-01-20T08:02:55.635Z,7.84
2023-01-20T08:05:22.496Z,7.99
2023-01-20T08:07:52.460Z,8.15
2023-01-20T08:10:21.294Z,8.26
2023-01-20T08:12:47.942Z,8.48
2023-01-20T08:15:14.811Z,8.77
2023-01-20T08:17:41.613Z,8.86
2023-01-20T08:20:09.884Z,9.20
2023-01-20T08:22:36.525Z,9.27
2023-01-20T08:25:03.158Z,9.06
2023-01-20T08:27:29.750Z,9.19
2023-01-20T08:29:56.357Z,8.99
2023-01-20T08:32:23.100Z,9.08
2023-01-20T08:34:49.691Z,9.34
2023-01-20T08:37:16.442Z,9.49
2023-01-20T08:39:43.341Z,9.63
2023-01-20T08:42:10.041Z,9.51
2023-01-20T08:44:36.683Z,9.18
2023-01-20T08:47:03.360Z,8.95
2023-01-20T08:49:30.237Z,8.76
2023-01-20T08:51:57.087Z,8.79
2023-01-20T08:54:23.802Z,8.86
2023-01-20T08:56:51.605Z,8.69
2023-01-20T08:59:18.707Z,8.94
2023-01-20T09:01:45.484Z,8.98
2023-01-20T09:04:12.470Z,8.83
2023-01-20T09:06:39.142Z,8.83
2023-01-20T09:09:06.007Z,8.81
2023-01-20T09:11:32.813Z,9.09
2023-01-20T09:13:59.563Z,9.21
2023-01-20T09:16:26.249Z,9.17
2023-01-20T09:18:52.799Z,9.20
2023-01-20T09:21:19.543Z,9.17
2023-01-20T09:23:48.305Z,9.37
2023-01-20T09:26:29.598Z,9.43
2023-01-20T09:29:09.727Z,9.66
2023-01-20T09:31:40.438Z,9.89
2023-01-20T09:34:07.260Z,9.95
2023-01-20T09:36:33.946Z,9.87
2023-01-20T09:39:18.977Z,10.06
2023-01-20T09:42:06.574Z,10.26
2023-01-20T09:44:40.484Z,10.33
2023-01-20T09:47:30.623Z,10.43
2023-01-20T09:50:38.762Z,10.59
2023-01-20T09:53:05.424Z,10.61
2023-01-20T09:55:50.217Z,10.73
2023-01-20T09:58:32.713Z,10.85
2023-01-20T10:01:17.122Z,10.96
2023-01-20T10:03:53.051Z,11.16
2023-01-20T10:06:24.879Z,11.37
2023-01-20T10:09:04.942Z,11.50
2023-01-20T10:11:38.247Z,11.68
2023-01-20T10:14:18.666Z,11.79
2023-01-20T10:16:50.235Z,11.96
2023-01-20T10:19:43.056Z,12.12
2023-01-20T10:22:12.497Z,12.29
2023-01-20T10:24:44.663Z,12.38
2023-01-20T10:27:11.289Z,12.55
2023-01-20T10:29:39.539Z,12.65
2023-01-20T10:32:14.278Z,12.81
2023-01-20T10:34:44.236Z,12.91
2023-01-20T10:37:11.679Z,12.89
2023-01-20T10:39:41.241Z,13.03
2023-01-20T10:42:15.272Z,13.26
2023-01-20T10:44:42.061Z,13.49
2023-01-20T10:47:08.654Z,13.71
2023-01-20T10:49:48.894Z,13.71
2023-01-20T10:52:18.544Z,13.77
2023-01-20T10:54:54.415Z,13.80
2023-01-20T10:57:21.668Z,13.66
2023-01-20T10:59:51.087Z,13.75
2023-01-20T11:02:17.994Z,13.77
2023-01-20T11:04:45.903Z,13.71
2023-01-20T11:07:15.603Z,13.79
2023-01-20T11:09:42.722Z,13.88
2023-01-20T11:12:17.259Z,13.89
2023-01-20T11:14:45.282Z,13.98
2023-01-20T11:17:16.724Z,13.95
2023-01-20T11:19:51.191Z,14.03
2023-01-20T11:22:22.812Z,14.02
2023-01-20T11:24:53.683Z,14.13
2023-01-20T11:27:21.487Z,14.18
2023-01-20T11:30:01.364Z,14.26
2023-01-20T11:32:28.023Z,14.36
2023-01-20T11:34:55.864Z,14.37
2023-01-20T11:37:25.707Z,14.48
2023-01-20T11:39:55.496Z,14.54
2023-01-20T11:42:26.436Z,14.50
2023-01-20T11:44:54.499Z,14.58
2023-01-20T11:47:23.672Z,14.48
2023-01-20T11:50:08.455Z,14.48
2023-01-20T11:52:36.763Z,14.42
2023-01-20T11:55:23.754Z,14.43
2023-01-20T11:57:55.545Z,14.51
2023-01-20T12:00:30.239Z,14.46
2023-01-20T12:03:03.168Z,14.39
2023-01-20T12:05:29.921Z,14.40
2023-01-20T12:07:56.634Z,14.24
2023-01-20T12:10:29.426Z,14.29
2023-01-20T12:13:16.305Z,14.27
2023-01-20T12:15:45.485Z,14.30
2023-01-20T12:18:16.821Z,14.20
2023-01-20T12:20:56.165Z,14.25
2023-01-20T12:23:22.904Z,14.30
2023-01-20T12:25:56.846Z,14.35
2023-01-20T12:28:27.232Z,14.38
2023-01-20T12:30:56.889Z,14.48
2023-01-20T12:33:28.898Z,14.51
2023-01-20T12:36:14.280Z,14.57
2023-01-20T12:38:53.404Z,14.58
2023-01-20T12:41:33.402Z,14.60
2023-01-20T12:44:13.289Z,14.63
2023-01-20T12:47:03.196Z,14.61
2023-01-20T12:49:42.427Z,14.71
2023-01-20T12:52:15.251Z,14.73
2023-01-20T12:54:48.659Z,14.67
2023-01-20T12:57:28.537Z,14.62
2023-01-20T13:00:14.036Z,14.54
2023-01-20T13:03:19.516Z,14.59
2023-01-20T13:05:46.120Z,14.49
2023-01-20T13:08:18.631Z,14.44
2023-01-20T13:11:00.294Z,14.45
2023-01-20T13:13:56.904Z,14.35
2023-01-20T13:16:30.546Z,14.34
2023-01-20T13:19:17.584Z,14.33
2023-01-20T13:21:44.280Z,14.21
2023-01-20T13:24:18.892Z,14.29
2023-01-20T13:26:46.964Z,14.27
2023-01-20T13:29:21.580Z,14.31
2023-01-20T13:31:50.530Z,14.28
2023-01-20T13:34:23.220Z,14.29
2023-01-20T13:37:07.183Z,14.33
2023-01-20T13:39:45.790Z,14.27
2023-01-20T13:42:31.037Z,14.26
2023-01-20T13:45:16.293Z,14.38
2023-01-20T13:47:55.043Z,14.38
2023-01-20T13:50:24.944Z,14.36
2023-01-20T13:52:54.720Z,14.40
2023-01-20T13:55:28.343Z,14.36
2023-01-20T13:57:54.991Z,14.33
2023-01-20T14:00:22.307Z,14.40
2023-01-20T14:02:49.803Z,14.47
2023-01-20T14:05:23.928Z,14.38
2023-01-20T14:07:50.579Z,14.52
2023-01-20T14:10:18.577Z,14.44
2023-01-20T14:12:45.317Z,14.32
2023-01-20T14:15:24.973Z,14.36
2023-01-20T14:17:55.941Z,14.37
2023-01-20T14:20:24.163Z,14.35
2023-01-20T14:22:50.941Z,14.36
2023-01-20T14:25:25.133Z,14.38
2023-01-20T14:27:54.226Z,14.39
2023-01-20T14:30:27.160Z,14.37
2023-01-20T14:32:53.950Z,14.45
2023-01-20T14:35:29.966Z,14.44
2023-01-20T14:37:57.117Z,14.44
2023-01-20T14:40:31.329Z,14.48
2023-01-20T14:42:59.435Z,14.51
2023-01-20T14:45:27.920Z,14.51
2023-01-20T14:47:55.425Z,14.51
2023-01-20T14:50:22.355Z,14.54
2023-01-20T14:52:49.234Z,14.56
2023-01-20T14:55:35.649Z,14.61
2023-01-20T14:58:09.654Z,14.64
2023-01-20T15:00:42.296Z,14.62
2023-01-20T15:03:25.597Z,14.61
2023-01-20T15:05:55.150Z,14.58
2023-01-20T15:09:04.407Z,14.63
2023-01-20T15:11:33.027Z,14.68
2023-01-20T15:14:02.503Z,14.70
2023-01-20T15:16:38.940Z,14.72
2023-01-20T15:19:20.865Z,14.74
2023-01-20T15:21:49.029Z,14.76
2023-01-20T15:24:20.396Z,14.79
2023-01-20T15:26:48.389Z,14.80
2023-01-20T15:29:30.475Z,14.82
2023-01-20T15:31:58.589Z,14.81
2023-01-20T15:34:25.893Z,14.87
2023-01-20T15:36:53.417Z,14.73
2023-01-20T15:39:22.030Z,14.81
2023-01-20T15:41:53.850Z,14.80
2023-01-20T15:44:21.159Z,14.75
2023-01-20T15:46:48.135Z,14.78
2023-01-20T15:49:15.225Z,14.74
2023-01-20T15:51:42.793Z,14.63
2023-01-20T15:54:09.807Z,14.61
2023-01-20T15:56:38.871Z,14.59
2023-01-20T15:59:16.232Z,14.64
2023-01-20T16:01:43.422Z,14.48
2023-01-20T16:04:10.160Z,14.50
2023-01-20T16:06:37.539Z,14.46
2023-01-20T16:09:13.992Z,14.42
2023-01-20T16:11:42.293Z,14.43
2023-01-20T16:14:08.944Z,14.29
2023-01-20T16:16:35.843Z,14.34
2023-01-20T16:19:02.627Z,14.26
2023-01-20T16:21:29.285Z,14.25
2023-01-20T16:23:55.917Z,14.03
2023-01-20T16:26:24.427Z,13.98
2023-01-20T16:28:51.720Z,14.00
2023-01-20T16:31:18.976Z,13.94
2023-01-20T16:33:45.856Z,13.85
2023-01-20T16:36:13.764Z,13.79
2023-01-20T16:38:40.747Z,13.65
2023-01-20T16:41:13.411Z,13.50
2023-01-20T16:43:43.311Z,13.38
2023-01-20T16:46:30.202Z,13.18
2023-01-20T16:49:01.784Z,13.02
2023-01-20T16:51:29.355Z,12.99
2023-01-20T16:53:56.911Z,12.94
2023-01-20T16:56:24.771Z,12.85
2023-01-20T16:58:53.101Z,12.73
2023-01-20T17:01:24.815Z,12.68
2023-01-20T17:03:52.762Z,12.60
2023-01-20T17:06:20.697Z,12.56
2023-01-20T17:08:51.119Z,12.32
2023-01-20T17:11:21.669Z,12.23
2023-01-20T17:13:48.625Z,12.07
2023-01-20T17:16:15.401Z,12.03
2023-01-20T17:18:45.208Z,12.01
2023-01-20T17:21:12.871Z,11.96
2023-01-20T17:23:39.902Z,11.91
2023-01-20T17:26:07.603Z,11.91
2023-01-20T17:28:34.241Z,12.07
2023-01-20T17:31:04.653Z,12.08
2023-01-20T17:33:31.569Z,12.01
2023-01-20T17:36:02.114Z,12.01
2023-01-20T17:38:29.721Z,11.94
2023-01-20T17:41:03.237Z,12.01
2023-01-20T17:43:33.820Z,11.88
2023-01-20T17:46:02.732Z,11.70
2023-01-20T17:48:29.457Z,11.76
2023-01-20T17:50:59.215Z,11.54
2023-01-20T17:53:26.606Z,11.57
2023-01-20T17:56:03.036Z,11.50
2023-01-20T17:58:37.846Z,11.55
2023-01-20T18:01:15.064Z,11.52
2023-01-20T18:03:43.169Z,11.53
2023-01-20T18:06:14.511Z,11.51
2023-01-20T18:08:41.293Z,11.51
2023-01-20T18:11:16.784Z,11.48
2023-01-20T18:13:45.498Z,11.37
2023-01-20T18:16:13.782Z,11.33
2023-01-20T18:18:41.252Z,11.20
2023-01-20T18:21:11.847Z,11.23
2023-01-20T18:23:39.302Z,11.21
2023-01-20T18:26:06.377Z,11.21
2023-01-20T18:28:33.919Z,11.24
2023-01-20T18:31:03.153Z,11.18
2023-01-20T18:33:29.842Z,11.39
2023-01-20T18:35:56.488Z,11.37
2023-01-20T18:38:23.091Z,11.45
2023-01-20T18:40:49.819Z,11.41
2023-01-20T18:43:16.432Z,11.39
2023-01-20T18:45:43.119Z,11.31
2023-01-20T18:48:10.030Z,11.34
2023-01-20T18:50:36.624Z,11.37
2023-01-20T18:53:03.201Z,11.24
2023-01-20T18:55:31.629Z,11.28
2023-01-20T18:57:58.280Z,11.31
2023-01-20T19:00:25.101Z,11.25
2023-01-20T19:02:52.365Z,11.27
2023-01-20T19:05:19.248Z,11.18
2023-01-20T19:07:50.458Z,11.07
2023-01-20T19:10:17.843Z,11.02
2023-01-20T19:12:44.824Z,11.05
2023-01-20T19:15:13.637Z,10.96
2023-01-20T19:17:40.308Z,10.96
2023-01-20T19:20:07.267Z,11.00
2023-01-20T19:22:33.884Z,10.95
2023-01-20T19:25:00.611Z,10.95
2023-01-20T19:27:27.418Z,10.85
2023-01-20T19:29:54.035Z,10.87
2023-01-20T19:32:20.721Z,10.78
2023-01-20T19:34:47.357Z,10.65
2023-01-20T19:37:13.992Z,10.71
2023-01-20T19:39:40.576Z,10.76
2023-01-20T19:42:07.239Z,10.83
2023-01-20T19:44:33.894Z,10.84
2023-01-20T19:47:04.243Z,10.83
2023-01-20T19:49:32.049Z,10.73
2023-01-20T19:51:59.895Z,10.70
2023-01-20T19:54:28.666Z,10.30
2023-01-20T19:56:55.341Z,10.43
2023-01-20T19:59:21.949Z,10.50
2023-01-20T20:01:48.610Z,10.23
2023-01-20T20:04:15.381Z,10.35
2023-01-20T20:06:48.420Z,10.40
2023-01-20T20:09:18.933Z,10.50
2023-01-20T20:11:46.141Z,10.56
2023-01-20T20:14:14.131Z,10.62
2023-01-20T20:16:41.209Z,10.61
2023-01-20T20:19:08.801Z,10.63
2023-01-20T20:21:35.525Z,10.55
2023-01-20T20:24:03.064Z,10.36
2023-01-20T20:26:31.146Z,10.27
2023-01-20T20:29:01.556Z,10.26
2023-01-20T20:31:31.222Z,10.15
2023-01-20T20:33:58.726Z,10.20
2023-01-20T20:36:28.379Z,10.24
2023-01-20T20:38:55.361Z,10.13
2023-01-20T20:41:22.524Z,10.18
2023-01-20T20:43:49.209Z,10.26
2023-01-20T20:46:16.443Z,10.18
2023-01-20T20:48:43.178Z,9.74
2023-01-20T20:51:11.409Z,9.56
2023-01-20T20:53:38.100Z,9.40
2023-01-20T20:56:12.519Z,9.42
2023-01-20T20:58:51.607Z,9.53
2023-01-20T21:01:26.722Z,9.70
2023-01-20T21:03:54.013Z,9.81
2023-01-20T21:06:22.717Z,9.88
2023-01-20T21:08:49.599Z,9.99
2023-01-20T21:11:16.269Z,10.02
2023-01-20T21:13:44.442Z,9.79
2023-01-20T21:16:14.098Z,9.61
2023-01-20T21:18:41.690Z,9.45
2023-01-20T21:21:11.632Z,9.46
2023-01-20T21:23:38.381Z,9.56
2023-01-20T21:26:06.439Z,9.58
2023-01-20T21:28:35.643Z,9.53
2023-01-20T21:31:15.084Z,9.36
2023-01-20T21:33:42.713Z,9.14
2023-01-20T21:36:12.414Z,9.17
2023-01-20T21:38:41.482Z,9.13
2023-01-20T21:41:10.016Z,9.23
2023-01-20T21:43:57.300Z,9.29
2023-01-20T21:46:24.434Z,9.28
2023-01-20T21:49:09.468Z,9.41
2023-01-20T21:51:54.661Z,9.42
2023-01-20T21:54:21.372Z,9.48
2023-01-20T21:56:48.844Z,9.46
2023-01-20T21:59:15.549Z,9.48
2023-01-20T22:01:44.594Z,9.27
2023-01-20T22:04:11.271Z,9.40
2023-01-20T22:06:37.893Z,9.42
2023-01-20T22:09:04.541Z,9.44
2023-01-20T22:11:31.177Z,9.27
2023-01-20T22:13:57.870Z,9.37
2023-01-20T22:16:25.604Z,9.41
2023-01-20T22:18:52.810Z,9.40
2023-01-20T22:21:20.274Z,9.37
2023-01-20T22:23:46.933Z,9.34
2023-01-20T22:26:13.954Z,9.37
2023-01-20T22:28:40.719Z,9.26
2023-01-20T22:31:08.315Z,9.31
2023-01-20T22:33:35.005Z,9.37
2023-01-20T22:36:01.742Z,9.37
2023-01-20T22:38:28.655Z,9.24
2023-01-20T22:40:55.301Z,8.95
2023-01-20T22:43:21.923Z,8.96
2023-01-20T22:45:48.782Z,9.13
2023-01-20T22:48:15.453Z,9.15
2023-01-20T22:50:42.058Z,9.25
2023-01-20T22:53:08.731Z,9.12
2023-01-20T22:55:35.324Z,9.13
2023-01-20T22:58:01.935Z,9.20
2023-01-20T23:00:28.577Z,9.09
2023-01-20T23:02:55.193Z,8.95
2023-01-20T23:05:21.765Z,8.72
2023-01-20T23:07:48.513Z,8.64
2023-01-20T23:10:35.092Z,8.71
2023-01-20T23:13:01.771Z,8.80
2023-01-20T23:15:28.814Z,8.83
2023-01-20T23:17:55.904Z,8.83
2023-01-20T23:20:22.543Z,8.75
2023-01-20T23:22:49.191Z,8.76
2023-01-20T23:25:17.781Z,8.71
2023-01-20T23:27:44.426Z,8.46
2023-01-20T23:30:11.378Z,8.49
2023-01-20T23:32:38.173Z,8.32
2023-01-20T23:35:05.014Z,8.27
2023-01-20T23:37:31.637Z,8.26
2023-01-20T23:39:58.214Z,8.16
2023-01-20T23:42:24.860Z,8.10
2023-01-20T23:44:51.706Z,8.04
2023-01-20T23:47:18.412Z,8.08
2023-01-20T23:49:45.065Z,7.94
2023-01-20T23:52:11.688Z,7.57
2023-01-20T23:54:38.272Z,7.31
2023-01-20T23:57:04.944Z,6.97
2023-01-20T23:59:31.619Z,6.66
